createdAt,value
2018-10-19T00:02:23.825Z,9.73
2018-10-19T00:05:00.093Z,7.73
2018-10-19T00:07:33.437Z,8.23
2018-10-19T00:10:06.937Z,9.13
2018-10-19T00:12:40.784Z,6.40
2018-10-19T00:15:14.580Z,9.67
2018-10-19T00:17:48.149Z,5.97
2018-10-19T00:20:21.526Z,7.60
2018-10-19T00:22:54.903Z,7.23
2018-10-19T00:25:28.227Z,9.50
2018-10-19T00:28:01.960Z,7.07
2018-10-19T00:30:35.404Z,6.30
2018-10-19T00:33:08.837Z,6.77
2018-10-19T00:35:43.705Z,6.83
2018-10-19T00:38:17.066Z,6.50
2018-10-19T00:40:50.493Z,6.80
2018-10-19T00:43:23.652Z,10.00
2018-10-19T00:45:57.955Z,11.27
2018-10-19T00:48:31.336Z,9.97
2018-10-19T00:51:05.803Z,10.30
2018-10-19T00:53:40.858Z,8.03
2018-10-19T00:56:15.328Z,16.63
2018-10-19T00:58:48.953Z,10.57
2018-10-19T01:01:22.959Z,10.47
2018-10-19T01:03:59.059Z,11.83
2018-10-19T01:06:33.056Z,12.17
2018-10-19T01:09:07.014Z,40.27
2018-10-19T01:11:41.697Z,9.97
2018-10-19T01:14:15.715Z,18.63
2018-10-19T01:16:50.220Z,19.10
2018-10-19T01:19:24.172Z,31.07
2018-10-19T01:21:57.875Z,20.10
2018-10-19T01:24:32.238Z,13.17
2018-10-19T01:27:05.627Z,11.90
2018-10-19T01:29:39.315Z,15.03
2018-10-19T01:32:12.967Z,14.87
2018-10-19T01:34:46.168Z,15.60
2018-10-19T01:37:19.505Z,11.50
2018-10-19T01:39:52.714Z,9.73
2018-10-19T01:42:26.162Z,11.20
2018-10-19T01:44:59.539Z,10.40
2018-10-19T01:47:33.562Z,12.83
2018-10-19T01:50:07.864Z,11.77
2018-10-19T01:52:42.412Z,9.03
2018-10-19T01:55:15.606Z,12.37
2018-10-19T01:57:50.202Z,7.63
2018-10-19T02:00:24.309Z,8.47
2018-10-19T02:02:58.973Z,7.97
2018-10-19T02:05:32.495Z,9.37
2018-10-19T02:08:05.947Z,9.17
2018-10-19T02:10:38.868Z,8.93
2018-10-19T02:13:13.102Z,10.80
2018-10-19T02:15:47.138Z,14.13
2018-10-19T02:18:21.149Z,10.40
2018-10-19T02:20:57.236Z,8.77
2018-10-19T02:23:32.247Z,7.67
2018-10-19T02:26:09.884Z,7.40
2018-10-19T02:28:43.586Z,10.00
2018-10-19T02:31:17.422Z,7.80
2018-10-19T02:33:50.868Z,8.23
2018-10-19T02:36:25.641Z,13.53
2018-10-19T02:38:58.720Z,9.97
2018-10-19T02:41:31.699Z,8.07
2018-10-19T02:44:06.141Z,10.97
2018-10-19T02:46:40.828Z,10.53
2018-10-19T02:49:13.810Z,8.03
2018-10-19T02:51:47.943Z,10.13
2018-10-19T02:54:21.997Z,10.00
2018-10-19T02:56:55.099Z,13.13
2018-10-19T02:59:28.183Z,15.60
2018-10-19T03:02:01.202Z,13.03
2018-10-19T03:04:34.523Z,10.33
2018-10-19T03:07:12.380Z,10.93
2018-10-19T03:09:46.157Z,14.57
2018-10-19T03:12:20.775Z,14.37
2018-10-19T03:14:55.292Z,10.90
2018-10-19T03:17:29.630Z,11.77
2018-10-19T03:20:03.564Z,13.23
2018-10-19T03:22:38.417Z,10.80
2018-10-19T03:25:12.816Z,11.50
2018-10-19T03:27:46.340Z,11.30
2018-10-19T03:30:20.759Z,9.73
2018-10-19T03:32:55.070Z,12.63
2018-10-19T03:35:30.060Z,12.33
2018-10-19T03:38:04.182Z,8.00
2018-10-19T03:40:38.333Z,10.27
2018-10-19T03:43:13.016Z,13.67
2018-10-19T03:45:46.286Z,10.00
2018-10-19T03:48:22.664Z,8.67
2018-10-19T03:50:56.940Z,11.73
2018-10-19T03:53:31.373Z,10.17
2018-10-19T03:56:05.404Z,9.93
2018-10-19T03:58:39.610Z,11.80
2018-10-19T04:01:13.223Z,12.47
2018-10-19T04:03:48.314Z,9.93
2018-10-19T04:06:27.903Z,9.10
2018-10-19T04:09:03.603Z,11.80
2018-10-19T04:11:38.431Z,10.70
2018-10-19T04:14:15.066Z,12.33
2018-10-19T04:16:52.972Z,20.40
2018-10-19T04:19:26.599Z,18.23
2018-10-19T04:24:39.757Z,12.73
2018-10-19T04:27:14.246Z,13.03
2018-10-19T04:29:47.689Z,10.80
2018-10-19T04:32:21.665Z,13.53
2018-10-19T04:34:55.099Z,10.97
2018-10-19T04:37:30.429Z,10.70
2018-10-19T04:40:04.535Z,8.97
2018-10-19T04:42:37.942Z,8.43
2018-10-19T04:45:11.449Z,10.97
2018-10-19T04:47:44.997Z,10.73
2018-10-19T04:50:19.601Z,10.10
2018-10-19T04:52:53.856Z,12.30
2018-10-19T04:55:27.368Z,12.23
2018-10-19T04:58:02.000Z,10.23
2018-10-19T05:00:39.205Z,12.00
2018-10-19T05:03:13.556Z,9.37
2018-10-19T05:05:49.778Z,11.00
2018-10-19T05:08:25.031Z,9.27
2018-10-19T05:10:58.522Z,9.53
2018-10-19T05:13:36.129Z,11.30
2018-10-19T05:16:13.098Z,7.47
2018-10-19T05:18:50.429Z,10.13
2018-10-19T05:21:28.771Z,8.77
2018-10-19T05:24:05.650Z,9.80
2018-10-19T05:26:43.726Z,11.47
2018-10-19T05:29:19.503Z,10.07
2018-10-19T05:31:56.017Z,10.47
2018-10-19T05:34:29.540Z,10.20
2018-10-19T05:37:04.407Z,11.20
2018-10-19T05:39:38.136Z,9.27
2018-10-19T05:42:11.428Z,11.43
2018-10-19T05:44:45.018Z,10.40
2018-10-19T05:47:19.115Z,9.13
2018-10-19T05:49:54.350Z,11.43
2018-10-19T05:52:28.428Z,9.73
2018-10-19T05:55:03.144Z,14.67
2018-10-19T05:57:38.164Z,10.37
2018-10-19T06:00:12.955Z,13.53
2018-10-19T06:02:46.555Z,11.13
2018-10-19T06:05:22.702Z,13.93
2018-10-19T06:07:57.240Z,11.17
2018-10-19T06:10:33.763Z,11.13
2018-10-19T06:13:09.584Z,12.50
2018-10-19T06:15:44.735Z,15.17
2018-10-19T06:18:19.903Z,13.77
2018-10-19T06:20:54.324Z,13.00
2018-10-19T06:23:28.236Z,12.17
2018-10-19T06:26:03.222Z,16.00
2018-10-19T06:28:37.645Z,16.43
2018-10-19T06:31:11.007Z,18.40
2018-10-19T06:33:45.558Z,17.90
2018-10-19T06:36:21.542Z,18.97
2018-10-19T06:38:55.374Z,15.90
2018-10-19T06:41:30.437Z,14.97
2018-10-19T06:44:04.324Z,13.67
2018-10-19T06:46:37.934Z,12.70
2018-10-19T06:49:11.985Z,13.77
2018-10-19T06:51:46.324Z,14.33
2018-10-19T06:54:21.643Z,14.63
2018-10-19T06:56:55.773Z,12.47
2018-10-19T06:59:29.765Z,13.30
2018-10-19T07:02:04.818Z,21.17
2018-10-19T07:04:38.927Z,15.07
2018-10-19T07:07:13.130Z,14.73
2018-10-19T07:09:47.842Z,15.07
2018-10-19T07:12:21.265Z,14.63
2018-10-19T07:14:55.699Z,13.33
2018-10-19T07:17:33.681Z,13.80
2018-10-19T07:20:09.646Z,13.13
2018-10-19T07:22:43.922Z,13.97
2018-10-19T07:25:17.937Z,16.83
2018-10-19T07:27:53.028Z,15.50
2018-10-19T07:30:27.426Z,14.63
2018-10-19T07:33:00.851Z,13.90
2018-10-19T07:35:34.923Z,13.73
2018-10-19T07:38:10.494Z,15.73
2018-10-19T07:40:43.897Z,15.23
2018-10-19T07:43:17.960Z,15.97
2018-10-19T07:45:51.941Z,14.30
2018-10-19T07:48:25.507Z,13.70
2018-10-19T07:50:59.981Z,18.13
2018-10-19T07:53:34.555Z,15.17
2018-10-19T07:56:09.269Z,16.27
2018-10-19T07:58:42.731Z,14.33
2018-10-19T08:01:16.230Z,11.80
2018-10-19T08:03:49.524Z,15.63
2018-10-19T08:06:23.132Z,16.60
2018-10-19T08:08:56.797Z,13.77
2018-10-19T08:11:45.772Z,12.27
2018-10-19T08:14:30.499Z,11.63
2018-10-19T08:17:21.033Z,12.27
2018-10-19T08:20:04.435Z,13.37
2018-10-19T08:22:38.533Z,11.97
2018-10-19T08:25:30.790Z,12.53
2018-10-19T08:28:19.761Z,11.03
2018-10-19T08:31:10.952Z,11.00
2018-10-19T08:33:59.827Z,13.13
2018-10-19T08:36:34.811Z,11.13
2018-10-19T08:39:11.279Z,9.53
2018-10-19T08:41:57.747Z,11.97
2018-10-19T08:44:44.952Z,14.73
2018-10-19T08:47:30.380Z,11.23
2018-10-19T08:50:14.348Z,12.37
2018-10-19T08:53:03.248Z,13.67
2018-10-19T08:55:50.541Z,10.90
2018-10-19T08:58:39.079Z,11.70
2018-10-19T09:01:28.995Z,13.77
2018-10-19T09:04:15.380Z,10.50
2018-10-19T09:07:04.268Z,13.77
2018-10-19T09:09:44.308Z,14.50
2018-10-19T09:12:29.910Z,12.50
2018-10-19T09:15:19.035Z,11.87
2018-10-19T09:18:09.457Z,11.60
2018-10-19T09:20:57.157Z,13.80
2018-10-19T09:23:30.818Z,11.33
2018-10-19T09:26:18.216Z,12.57
2018-10-19T09:29:02.475Z,12.00
2018-10-19T09:31:54.806Z,12.77
2018-10-19T09:34:37.717Z,13.93
2018-10-19T09:37:15.597Z,14.13
2018-10-19T09:39:55.866Z,12.57
2018-10-19T09:42:41.876Z,15.60
2018-10-19T09:45:30.227Z,13.27
2018-10-19T09:48:13.865Z,13.40
2018-10-19T09:50:58.325Z,13.50
2018-10-19T09:53:44.005Z,12.60
2018-10-19T09:56:30.737Z,18.83
2018-10-19T09:59:15.533Z,13.50
2018-10-19T10:02:02.159Z,13.77
2018-10-19T10:04:51.043Z,12.93
2018-10-19T10:07:40.138Z,13.40
2018-10-19T10:10:28.157Z,14.50
2018-10-19T10:13:19.084Z,14.13
2018-10-19T10:16:04.330Z,15.87
2018-10-19T10:18:47.561Z,15.57
2018-10-19T10:21:30.684Z,9.87
2018-10-19T10:24:17.265Z,14.00
2018-10-19T10:27:01.848Z,12.10
2018-10-19T10:36:36.317Z,13.77
2018-10-19T10:39:22.699Z,11.13
2018-10-19T10:42:13.009Z,14.60
2018-10-19T10:45:04.241Z,14.53
2018-10-19T10:47:50.734Z,12.07
2018-10-19T10:50:39.148Z,12.97
2018-10-19T10:53:23.846Z,14.67
2018-10-19T10:56:13.216Z,12.73
2018-10-19T10:58:56.953Z,15.47
2018-10-19T11:01:42.764Z,13.47
2018-10-19T11:04:26.377Z,15.03
2018-10-19T11:07:19.722Z,16.10
2018-10-19T11:10:04.730Z,13.70
2018-10-19T11:12:56.144Z,11.93
2018-10-19T11:15:39.449Z,10.97
2018-10-19T11:18:12.594Z,13.97
2018-10-19T11:20:46.216Z,12.93
2018-10-19T11:23:19.772Z,11.87
2018-10-19T11:25:53.329Z,11.53
2018-10-19T11:28:27.386Z,13.33
2018-10-19T11:31:00.783Z,10.80
2018-10-19T11:33:34.106Z,13.20
2018-10-19T11:36:07.853Z,10.63
2018-10-19T11:38:42.096Z,13.03
2018-10-19T11:41:15.920Z,14.97
2018-10-19T11:43:50.178Z,13.77
2018-10-19T11:46:24.412Z,12.53
2018-10-19T11:48:59.181Z,12.43
2018-10-19T11:51:32.618Z,10.10
2018-10-19T11:54:06.079Z,10.43
2018-10-19T11:56:39.144Z,14.20
2018-10-19T11:59:13.084Z,11.57
2018-10-19T12:01:46.302Z,13.73
2018-10-19T12:04:19.936Z,11.93
2018-10-19T12:06:54.390Z,13.07
2018-10-19T12:09:27.390Z,14.27
2018-10-19T12:12:00.467Z,12.77
2018-10-19T12:14:33.748Z,15.07
2018-10-19T12:17:07.133Z,12.37
2018-10-19T12:19:41.850Z,12.23
2018-10-19T12:22:15.056Z,15.00
2018-10-19T12:24:48.412Z,13.40
2018-10-19T12:27:22.691Z,13.70
2018-10-19T12:29:55.665Z,12.67
2018-10-19T12:32:28.918Z,10.87
2018-10-19T12:35:02.340Z,13.20
2018-10-19T12:37:36.782Z,12.10
2018-10-19T12:40:11.067Z,15.53
2018-10-19T12:42:44.887Z,13.77
2018-10-19T12:47:41.798Z,14.97
2018-10-19T12:50:15.154Z,12.70
2018-10-19T12:52:50.485Z,15.73
2018-10-19T12:55:23.763Z,11.33
2018-10-19T12:57:57.672Z,11.37
2018-10-19T13:00:31.061Z,15.67
2018-10-19T13:03:04.789Z,13.03
2018-10-19T13:05:38.722Z,13.80
2018-10-19T13:08:13.886Z,15.57
2018-10-19T13:10:48.355Z,14.20
2018-10-19T13:13:21.597Z,14.93
2018-10-19T13:15:55.131Z,15.40
2018-10-19T13:18:30.301Z,16.63
2018-10-19T13:21:03.624Z,14.63
2018-10-19T13:23:38.691Z,14.17
2018-10-19T13:26:12.301Z,14.80
2018-10-19T13:28:53.767Z,15.43
2018-10-19T13:31:27.181Z,15.70
2018-10-19T13:34:00.303Z,12.40
2018-10-19T13:36:45.867Z,14.87
2018-10-19T13:39:19.411Z,14.10
2018-10-19T13:41:52.905Z,13.40
2018-10-19T13:44:28.401Z,13.80
2018-10-19T13:47:01.590Z,13.87
2018-10-19T13:49:35.275Z,11.43
2018-10-19T13:52:08.650Z,12.53
2018-10-19T13:54:56.030Z,16.77
2018-10-19T13:57:41.009Z,13.70
2018-10-19T14:00:27.508Z,15.57
2018-10-19T14:03:15.992Z,15.20
2018-10-19T14:06:06.004Z,12.97
2018-10-19T14:08:47.634Z,17.20
2018-10-19T14:11:30.416Z,18.03
2018-10-19T14:14:15.351Z,11.73
2018-10-19T14:16:53.361Z,11.30
2018-10-19T14:19:26.341Z,16.13
2018-10-19T14:22:07.287Z,14.77
2018-10-19T14:24:45.601Z,16.70
2018-10-19T14:27:19.189Z,12.23
2018-10-19T14:30:07.259Z,13.90
2018-10-19T14:32:51.076Z,12.27
2018-10-19T14:35:30.439Z,14.70
2018-10-19T14:38:05.118Z,14.63
2018-10-19T14:40:37.842Z,14.63
2018-10-19T14:43:14.331Z,16.13
2018-10-19T14:46:01.119Z,16.03
2018-10-19T14:48:48.947Z,14.53
2018-10-19T14:51:38.325Z,12.70
2018-10-19T14:54:28.049Z,11.80
2018-10-19T14:57:17.668Z,14.23
2018-10-19T14:59:51.722Z,12.43
2018-10-19T15:02:24.926Z,13.47
2018-10-19T15:04:58.965Z,10.20
2018-10-19T15:07:33.060Z,15.23
2018-10-19T15:10:14.680Z,12.97
2018-10-19T15:12:51.263Z,11.33
2018-10-19T15:15:26.932Z,12.90
2018-10-19T15:18:00.378Z,12.43
2018-10-19T15:20:35.392Z,9.97
2018-10-19T15:23:08.874Z,11.57
2018-10-19T15:25:44.514Z,10.83
2018-10-19T15:28:18.543Z,11.53
2018-10-19T15:30:51.815Z,10.73
2018-10-19T15:33:25.187Z,13.20
2018-10-19T15:35:59.677Z,15.43
2018-10-19T15:38:33.129Z,12.70
2018-10-19T15:41:06.339Z,14.63
2018-10-19T15:43:40.405Z,11.33
2018-10-19T15:46:13.677Z,14.27
2018-10-19T15:48:47.258Z,14.07
2018-10-19T15:51:20.759Z,20.47
2018-10-19T15:53:54.137Z,17.77
2018-10-19T15:56:29.590Z,35.43
2018-10-19T15:59:02.924Z,84.83
2018-10-19T16:01:37.036Z,322.87
2018-10-19T16:04:13.227Z,251.33
2018-10-19T16:06:46.971Z,444.67
2018-10-19T16:09:20.221Z,200.43
2018-10-19T16:11:54.348Z,139.77
2018-10-19T16:14:27.745Z,205.47
2018-10-19T16:17:01.382Z,163.97
2018-10-19T16:19:34.864Z,246.30
2018-10-19T16:22:08.518Z,127.03
2018-10-19T16:24:41.988Z,53.67
2018-10-19T16:27:15.396Z,72.00
2018-10-19T16:29:48.776Z,48.13
2018-10-19T16:32:22.767Z,21.67
2018-10-19T16:34:56.302Z,22.70
2018-10-19T16:37:31.111Z,25.47
2018-10-19T16:40:04.885Z,34.00
2018-10-19T16:42:38.714Z,27.37
2018-10-19T16:45:12.253Z,28.57
2018-10-19T16:47:45.736Z,34.93
2018-10-19T16:50:20.934Z,27.30
2018-10-19T16:52:58.906Z,37.93
2018-10-19T16:55:32.473Z,32.53
2018-10-19T16:58:05.807Z,41.03
2018-10-19T17:00:39.289Z,42.63
2018-10-19T17:03:13.382Z,29.40
2018-10-19T17:05:46.899Z,33.83
2018-10-19T17:08:20.028Z,34.53
2018-10-19T17:10:53.346Z,30.40
2018-10-19T17:13:27.080Z,35.73
2018-10-19T17:16:01.500Z,32.77
2018-10-19T17:18:34.865Z,26.27
2018-10-19T17:21:08.906Z,29.17
2018-10-19T17:23:42.211Z,20.83
2018-10-19T17:26:15.338Z,26.57
2018-10-19T17:28:48.794Z,27.30
2018-10-19T17:31:21.895Z,23.10
2018-10-19T17:33:55.820Z,23.63
2018-10-19T17:36:29.178Z,25.83
2018-10-19T17:39:02.469Z,27.17
2018-10-19T17:41:35.978Z,29.60
2018-10-19T17:44:09.310Z,29.17
2018-10-19T17:46:42.850Z,27.27
2018-10-19T17:49:16.764Z,28.40
2018-10-19T17:51:50.409Z,26.13
2018-10-19T17:54:23.869Z,29.77
2018-10-19T17:56:57.506Z,27.60
2018-10-19T17:59:31.704Z,27.03
2018-10-19T18:02:04.983Z,26.70
2018-10-19T18:04:38.332Z,28.00
2018-10-19T18:07:11.623Z,32.47
2018-10-19T18:09:44.863Z,31.07
2018-10-19T18:12:18.199Z,31.23
2018-10-19T18:14:51.427Z,34.07
2018-10-19T18:17:24.808Z,32.30
2018-10-19T18:19:58.185Z,37.73
2018-10-19T18:22:31.734Z,33.50
2018-10-19T18:25:05.049Z,34.13
2018-10-19T18:27:38.355Z,33.87
2018-10-19T18:30:12.805Z,33.53
2018-10-19T18:32:46.734Z,32.53
2018-10-19T18:35:20.123Z,38.53
2018-10-19T18:37:54.087Z,37.47
2018-10-19T18:40:27.422Z,41.03
2018-10-19T18:43:01.134Z,38.57
2018-10-19T18:45:34.625Z,39.27
2018-10-19T18:48:08.015Z,40.83
2018-10-19T18:50:41.350Z,39.73
2018-10-19T18:53:14.904Z,37.93
2018-10-19T18:55:48.579Z,38.80
2018-10-19T18:58:21.940Z,41.97
2018-10-19T19:00:55.312Z,46.47
2018-10-19T19:03:28.522Z,46.87
2018-10-19T19:06:02.577Z,42.90
2018-10-19T19:08:35.641Z,41.37
2018-10-19T19:11:10.106Z,44.03
2018-10-19T19:13:49.620Z,42.80
2018-10-19T19:16:28.270Z,42.10
2018-10-19T19:19:06.111Z,46.37
2018-10-19T19:21:39.761Z,43.07
2018-10-19T19:24:18.098Z,41.60
2018-10-19T19:26:51.916Z,38.80
2018-10-19T19:29:25.584Z,39.77
2018-10-19T19:31:58.901Z,39.50
2018-10-19T19:34:32.980Z,36.87
2018-10-19T19:37:06.245Z,36.07
2018-10-19T19:39:39.654Z,33.50
2018-10-19T19:42:17.041Z,36.70
2018-10-19T19:44:50.445Z,33.03
2018-10-19T19:47:27.806Z,35.83
2018-10-19T19:50:05.494Z,32.73
2018-10-19T19:52:39.206Z,29.70
2018-10-19T19:55:12.824Z,29.43
2018-10-19T19:57:45.929Z,28.47
2018-10-19T20:00:19.087Z,29.00
2018-10-19T20:02:53.112Z,31.73
2018-10-19T20:05:27.170Z,32.33
2018-10-19T20:08:00.407Z,29.37
2018-10-19T20:10:33.848Z,32.10
2018-10-19T20:13:18.571Z,28.90
2018-10-19T20:16:00.538Z,32.77
2018-10-19T20:18:46.924Z,31.80
2018-10-19T20:21:20.422Z,29.10
2018-10-19T20:24:01.860Z,25.63
2018-10-19T20:26:46.311Z,25.70
2018-10-19T20:29:31.281Z,23.10
2018-10-19T20:32:21.049Z,26.43
2018-10-19T20:35:08.517Z,29.70
2018-10-19T20:37:53.520Z,28.73
2018-10-19T20:40:37.999Z,30.63
2018-10-19T20:43:24.419Z,31.00
2018-10-19T20:46:13.054Z,31.47
2018-10-19T20:49:01.114Z,32.87
2018-10-19T20:51:46.080Z,31.20
2018-10-19T20:54:31.539Z,33.77
2018-10-19T20:57:04.652Z,34.67
2018-10-19T20:59:38.043Z,33.63
2018-10-19T21:02:21.477Z,29.13
2018-10-19T21:05:05.066Z,33.13
2018-10-19T21:07:49.719Z,33.80
2018-10-19T21:10:31.391Z,32.03
2018-10-19T21:13:20.782Z,33.77
2018-10-19T21:16:09.797Z,30.20
2018-10-19T21:18:56.860Z,31.10
2018-10-19T21:21:38.989Z,27.20
2018-10-19T21:24:22.143Z,31.63
2018-10-19T21:27:16.331Z,29.60
2018-10-19T21:30:02.339Z,31.03
2018-10-19T21:32:37.282Z,32.43
2018-10-19T21:35:10.737Z,33.30
2018-10-19T21:37:45.948Z,34.40
2018-10-19T21:40:32.298Z,30.63
2018-10-19T21:43:16.544Z,36.90
2018-10-19T21:48:55.083Z,39.17
2018-10-19T21:51:31.822Z,32.33
2018-10-19T21:54:06.983Z,40.00
2018-10-19T21:56:52.170Z,34.63
2018-10-19T21:59:37.137Z,36.57
2018-10-19T22:02:11.241Z,35.03
2018-10-19T22:07:25.274Z,41.33
2018-10-19T22:10:05.949Z,33.47
2018-10-19T22:12:43.469Z,31.23
2018-10-19T22:15:16.786Z,35.83
2018-10-19T22:17:56.404Z,35.20
2018-10-19T22:20:29.691Z,33.43
2018-10-19T22:23:07.202Z,34.00
2018-10-19T22:25:42.975Z,31.37
2018-10-19T22:28:27.713Z,32.87
2018-10-19T22:31:10.374Z,31.80
2018-10-19T22:33:48.884Z,36.90
2018-10-19T22:36:29.922Z,34.83
2018-10-19T22:39:08.035Z,34.00
2018-10-19T22:41:40.856Z,33.17
2018-10-19T22:44:19.295Z,31.40
2018-10-19T22:47:02.773Z,32.40
2018-10-19T22:49:38.420Z,33.20
2018-10-19T22:52:11.267Z,31.23
2018-10-19T22:54:44.006Z,35.37
2018-10-19T22:57:16.782Z,32.20
2018-10-19T22:59:49.637Z,36.90
2018-10-19T23:02:23.360Z,33.63
2018-10-19T23:04:56.052Z,34.33
2018-10-19T23:07:38.985Z,34.00
2018-10-19T23:10:13.415Z,31.70
2018-10-19T23:12:49.308Z,34.10
2018-10-19T23:15:22.875Z,35.13
2018-10-19T23:17:57.214Z,34.00
2018-10-19T23:23:12.010Z,37.23
2018-10-19T23:25:45.830Z,31.93
2018-10-19T23:28:21.198Z,36.23
2018-10-19T23:30:55.556Z,34.53
2018-10-19T23:33:29.007Z,34.33
2018-10-19T23:36:02.359Z,35.23
2018-10-19T23:38:37.493Z,33.03
2018-10-19T23:41:10.857Z,33.33
2018-10-19T23:43:44.477Z,36.10
2018-10-19T23:46:20.515Z,34.43
2018-10-19T23:48:53.660Z,34.40
2018-10-19T23:51:28.522Z,31.30
2018-10-19T23:54:01.867Z,35.47
2018-10-19T23:56:35.598Z,36.23
2018-10-19T23:59:10.858Z,30.40
